Time;durP1;ratioP1;P1;durP2;ratioP2;P2;SDS_P1;SDS_P2;PMS_P1;PMS_P2;Temp;Humidity;BMP_temperature;BMP_pressure;BME280_temperature;BME280_humidity;BME280_pressure;Samples;Min_cycle;Max_cycle;Signal;HPM_P1;HPM_P2
2024/01/07 00:01:14;;;;;;;17.60;10.10;;;;;;;-4.50;87.77;100817.80;105622;1261;97950;-76
2024/01/07 00:04:00;;;;;;;21.90;11.10;;;;;;;-4.54;87.76;100815.88;105667;1260;99747;-77
2024/01/07 00:06:46;;;;;;;24.50;11.10;;;;;;;-4.59;87.64;100818.65;105555;1260;102699;-77
2024/01/07 00:09:32;;;;;;;21.80;12.60;;;;;;;-4.65;87.85;100819.83;105601;1258;100362;-76
2024/01/07 00:12:17;;;;;;;23.10;10.50;;;;;;;-4.71;87.99;100821.21;105523;1269;98981;-77
2024/01/07 00:15:03;;;;;;;20.70;10.30;;;;;;;-4.75;88.12;100821.63;105599;1261;98055;-76
2024/01/07 00:17:49;;;;;;;18.80;10.10;;;;;;;-4.79;88.14;100825.88;105539;1262;98522;-77
2024/01/07 00:20:35;;;;;;;24.20;11.20;;;;;;;-4.84;88.28;100825.95;105572;1261;102720;-77
2024/01/07 00:23:20;;;;;;;21.50;9.50;;;;;;;-4.89;88.49;100825.86;105686;1261;100343;-77
2024/01/07 00:26:07;;;;;;;21.00;9.90;;;;;;;-4.90;88.48;100829.40;105619;1260;98466;-77
2024/01/07 00:28:53;;;;;;;15.80;8.60;;;;;;;-4.92;88.73;100831.05;105449;1263;97960;-77
2024/01/07 00:31:38;;;;;;;21.10;9.30;;;;;;;-4.94;88.68;100832.77;105537;1264;99654;-77
2024/01/07 00:34:24;;;;;;;17.40;8.70;;;;;;;-4.96;88.98;100834.81;105622;1262;101400;-76
2024/01/07 00:37:10;;;;;;;19.00;9.80;;;;;;;-4.98;88.93;100837.18;105609;1261;100464;-77
2024/01/07 00:39:55;;;;;;;19.30;8.80;;;;;;;-5.03;88.78;100842.83;105458;1261;98736;-77
2024/01/07 00:42:41;;;;;;;16.10;8.50;;;;;;;-5.06;88.93;100846.13;105556;1261;97950;-76
2024/01/07 00:45:27;;;;;;;16.90;8.60;;;;;;;-5.08;89.17;100846.75;105519;1269;98483;-77
2024/01/07 00:48:13;;;;;;;14.60;7.70;;;;;;;-5.08;89.18;100851.10;105594;1260;101356;-77
2024/01/07 00:51:00;;;;;;;14.80;8.50;;;;;;;-5.10;89.14;100851.91;105606;1263;99083;-76
2024/01/07 00:53:45;;;;;;;15.70;7.70;;;;;;;-5.10;89.43;100851.58;105503;1260;99273;-77
2024/01/07 00:56:31;;;;;;;18.50;8.60;;;;;;;-5.12;89.39;100851.17;105600;1262;97961;-77
2024/01/07 00:59:16;;;;;;;17.80;8.20;;;;;;;-5.14;89.61;100850.39;105725;1260;98403;-77
2024/01/07 01:02:02;;;;;;;13.20;7.90;;;;;;;-5.15;89.56;100854.30;105569;1264;102170;-77
2024/01/07 01:04:47;;;;;;;17.30;8.60;;;;;;;-5.18;89.56;100850.83;105603;1260;100833;-77
2024/01/07 01:07:33;;;;;;;15.70;8.20;;;;;;;-5.20;89.80;100847.95;105578;1262;98509;-77
2024/01/07 01:10:19;;;;;;;15.60;7.70;;;;;;;-5.21;89.82;100851.14;105444;1262;98056;-76
2024/01/07 01:13:05;;;;;;;16.40;8.60;;;;;;;-5.24;89.98;100854.07;105630;1257;98082;-77
2024/01/07 01:15:52;;;;;;;15.30;8.00;;;;;;;-5.26;89.91;100852.31;105596;1258;101294;-77
2024/01/07 01:18:37;;;;;;;15.90;8.10;;;;;;;-5.29;90.05;100851.04;105491;1261;100317;-77
2024/01/07 01:21:23;;;;;;;17.00;8.40;;;;;;;-5.32;90.06;100851.73;105526;1258;99192;-76
2024/01/07 01:24:08;;;;;;;14.60;7.80;;;;;;;-5.36;90.23;100849.86;105435;1264;98984;-77
2024/01/07 01:26:54;;;;;;;16.90;8.10;;;;;;;-5.40;90.22;100854.77;105578;1260;98403;-77
2024/01/07 01:29:39;;;;;;;13.40;7.90;;;;;;;-5.43;90.25;100853.03;105584;1260;101364;-76
2024/01/07 01:32:25;;;;;;;16.90;7.40;;;;;;;-5.44;90.34;100854.98;105529;1258;100298;-77
2024/01/07 01:35:11;;;;;;;17.50;7.90;;;;;;;-5.45;90.48;100859.05;105576;1271;99257;-76
2024/01/07 01:37:57;;;;;;;13.70;8.10;;;;;;;-5.50;90.48;100859.45;105581;1257;98526;-77
2024/01/07 01:40:43;;;;;;;12.40;7.40;;;;;;;-5.52;90.48;100860.60;105601;1261;98026;-77
2024/01/07 01:43:29;;;;;;;18.10;8.60;;;;;;;-5.56;90.69;100856.27;105581;1258;101451;-77
2024/01/07 01:46:14;;;;;;;13.50;8.40;;;;;;;-5.59;90.77;100858.20;105431;1257;99160;-76
2024/01/07 01:49:00;;;;;;;15.30;8.20;;;;;;;-5.63;91.03;100854.73;105616;1258;97962;-77
2024/01/07 01:51:46;;;;;;;15.90;7.70;;;;;;;-5.67;91.03;100855.98;105517;1260;98047;-76
2024/01/07 01:54:32;;;;;;;12.20;7.20;;;;;;;-5.71;91.03;100850.77;105587;1257;98417;-76
2024/01/07 01:57:22;;;;;;;17.50;8.70;;;;;;;-5.75;91.24;100855.02;105617;1260;101340;-76
2024/01/07 02:00:08;;;;;;;19.40;8.20;;;;;;;-5.81;91.31;100853.06;105524;1260;99069;-76
2024/01/07 02:02:54;;;;;;;14.40;7.70;;;;;;;-5.84;91.33;100852.57;105553;1258;97940;-76
2024/01/07 02:05:40;;;;;;;18.50;9.20;;;;;;;-5.86;91.52;100856.33;106026;1261;97977;-76
2024/01/07 02:08:26;;;;;;;15.00;8.10;;;;;;;-5.92;91.64;100856.44;105576;1260;98439;-77
2024/01/07 02:11:20;;;;;;;15.90;8.10;;;;;;;-5.98;91.57;100855.18;105535;1258;102663;-76
2024/01/07 02:14:05;;;;;;;16.00;8.40;;;;;;;-6.02;91.56;100853.98;105639;1261;100036;-76
2024/01/07 02:16:51;;;;;;;13.30;7.70;;;;;;;-6.08;91.65;100857.94;105620;1261;97958;-76
2024/01/07 02:19:36;;;;;;;20.00;9.10;;;;;;;-6.10;91.72;100859.29;105557;1260;97924;-77
2024/01/07 02:22:22;;;;;;;16.60;8.90;;;;;;;-6.13;91.87;100860.10;105600;1257;97951;-76
2024/01/07 02:25:08;;;;;;;16.90;8.80;;;;;;;-6.15;91.88;100859.52;105703;1258;102616;-77
2024/01/07 02:27:54;;;;;;;18.90;9.80;;;;;;;-6.20;91.71;100858.76;105546;1260;100467;-77
2024/01/07 02:30:39;;;;;;;19.60;9.80;;;;;;;-6.26;91.81;100859.36;105413;1261;98586;-77
2024/01/07 02:33:24;;;;;;;19.40;9.30;;;;;;;-6.33;91.90;100855.89;105553;1257;98014;-77
2024/01/07 02:36:10;;;;;;;19.00;9.50;;;;;;;-6.38;92.12;100854.20;105497;1257;97972;-77
2024/01/07 02:38:55;;;;;;;20.90;9.90;;;;;;;-6.40;92.05;100857.63;105548;1269;101507;-77
2024/01/07 02:41:41;;;;;;;17.70;9.40;;;;;;;-6.46;91.90;100857.73;105510;1260;99140;-75
2024/01/07 02:44:27;;;;;;;18.10;8.90;;;;;;;-6.53;92.24;100856.16;105568;1260;99346;-77
2024/01/07 02:47:12;;;;;;;16.80;8.90;;;;;;;-6.58;92.06;100859.70;105303;1261;99238;-76
2024/01/07 02:49:57;;;;;;;21.50;9.40;;;;;;;-6.61;92.30;100860.34;105271;1257;97873;-77
2024/01/07 02:52:43;;;;;;;17.70;8.90;;;;;;;-6.65;92.56;100859.15;105384;1260;102598;-76
2024/01/07 02:55:29;;;;;;;20.70;10.00;;;;;;;-6.68;92.53;100856.52;105573;1256;99317;-77
2024/01/07 02:58:14;;;;;;;15.90;9.70;;;;;;;-6.69;92.60;100853.98;105484;1260;98571;-77
2024/01/07 03:01:00;;;;;;;18.10;10.10;;;;;;;-6.70;92.76;100858.02;105435;1260;98627;-77
2024/01/07 03:03:45;;;;;;;18.90;9.80;;;;;;;-6.71;92.84;100858.08;105519;1262;99140;-77
2024/01/07 03:06:32;;;;;;;17.90;8.90;;;;;;;-6.75;92.76;100857.55;105550;1260;101425;-77
2024/01/07 03:09:18;;;;;;;16.50;9.60;;;;;;;-6.76;92.90;100859.69;105599;1260;100357;-77
2024/01/07 03:12:03;;;;;;;23.70;10.90;;;;;;;-6.75;92.90;100858.77;105524;1260;98489;-77
2024/01/07 03:14:49;;;;;;;18.40;10.00;;;;;;;-6.77;93.16;100860.75;105516;1258;97947;-77
2024/01/07 03:17:35;;;;;;;18.50;9.20;;;;;;;-6.76;93.24;100864.88;105440;1260;97888;-77
2024/01/07 03:20:21;;;;;;;18.20;10.20;;;;;;;-6.76;93.14;100870.45;105466;1257;102799;-76
2024/01/07 03:23:06;;;;;;;17.20;9.80;;;;;;;-6.78;93.07;100870.75;105529;1257;99183;-77
2024/01/07 03:25:52;;;;;;;17.60;9.20;;;;;;;-6.81;93.06;100869.13;105489;1260;99714;-77
2024/01/07 03:28:37;;;;;;;18.60;10.50;;;;;;;-6.82;93.02;100867.94;105515;1258;97977;-77
2024/01/07 03:31:23;;;;;;;21.40;11.30;;;;;;;-6.85;92.91;100870.37;105530;1257;97977;-76
2024/01/07 03:34:09;;;;;;;18.10;10.60;;;;;;;-6.88;92.98;100869.80;105600;1261;101395;-77
2024/01/07 03:36:54;;;;;;;19.10;9.50;;;;;;;-6.86;93.15;100873.39;105577;1257;99610;-77
2024/01/07 03:39:40;;;;;;;17.20;9.50;;;;;;;-6.90;92.91;100874.94;105539;1257;97885;-77
2024/01/07 03:42:25;;;;;;;16.70;10.30;;;;;;;-6.94;92.95;100879.64;105608;1257;97982;-77
2024/01/07 03:45:11;;;;;;;17.50;10.50;;;;;;;-6.95;93.09;100878.67;105552;1260;98412;-76
2024/01/07 03:47:56;;;;;;;19.10;10.30;;;;;;;-6.95;93.29;100876.04;105148;1261;101367;-77
2024/01/07 03:50:42;;;;;;;17.70;9.80;;;;;;;-6.94;93.24;100876.00;105456;1260;99676;-77
2024/01/07 03:53:27;;;;;;;20.10;10.60;;;;;;;-6.97;92.85;100876.67;105453;1257;99085;-77
2024/01/07 03:56:13;;;;;;;19.90;10.70;;;;;;;-7.04;92.68;100881.65;105520;1267;98080;-76
2024/01/07 03:58:58;;;;;;;17.70;10.60;;;;;;;-7.07;92.77;100883.54;105560;1258;99976;-77
2024/01/07 04:01:44;;;;;;;20.10;10.10;;;;;;;-7.12;92.86;100884.25;105449;1257;102560;-76
2024/01/07 04:04:30;;;;;;;19.80;9.90;;;;;;;-7.15;92.70;100883.38;105727;1257;99115;-77
2024/01/07 04:07:15;;;;;;;19.40;10.50;;;;;;;-7.17;92.65;100880.70;105535;1260;98060;-77
2024/01/07 04:10:01;;;;;;;15.00;9.20;;;;;;;-7.21;92.66;100882.58;105114;1260;99278;-77
2024/01/07 04:12:47;;;;;;;17.20;10.00;;;;;;;-7.24;92.58;100882.91;105453;1260;98499;-78
2024/01/07 04:15:33;;;;;;;23.60;10.20;;;;;;;-7.26;92.72;100881.96;105620;1257;101982;-77
2024/01/07 04:18:18;;;;;;;19.40;9.10;;;;;;;-7.27;92.88;100883.75;105607;1257;99238;-77
2024/01/07 04:21:04;;;;;;;17.20;9.30;;;;;;;-7.27;92.76;100884.45;105526;1260;98006;-77
2024/01/07 04:23:49;;;;;;;24.80;10.00;;;;;;;-7.27;92.87;100885.64;105533;1258;97954;-77
2024/01/07 04:26:35;;;;;;;15.70;9.70;;;;;;;-7.26;93.00;100885.75;105500;1261;97860;-77
2024/01/07 04:29:21;;;;;;;15.60;9.20;;;;;;;-7.24;93.02;100888.83;105471;1257;102122;-77
2024/01/07 04:32:06;;;;;;;17.20;9.20;;;;;;;-7.25;92.81;100886.05;105545;1257;99119;-77
2024/01/07 04:34:52;;;;;;;17.30;9.70;;;;;;;-7.27;92.68;100887.72;105458;1262;97962;-76
2024/01/07 04:37:38;;;;;;;17.90;9.90;;;;;;;-7.31;92.63;100888.92;105493;1255;97971;-78
2024/01/07 04:40:23;;;;;;;18.50;9.50;;;;;;;-7.34;92.48;100889.77;105674;1257;97879;-76
2024/01/07 04:43:09;;;;;;;15.40;8.70;;;;;;;-7.35;92.69;100891.04;105598;1257;101347;-77
2024/01/07 04:45:55;;;;;;;18.10;9.50;;;;;;;-7.34;92.86;100887.02;105593;1258;100210;-77
2024/01/07 04:48:40;;;;;;;21.10;10.40;;;;;;;-7.34;92.69;100888.90;105564;1257;99145;-77
2024/01/07 04:51:26;;;;;;;15.80;9.10;;;;;;;-7.34;92.86;100889.77;105486;1260;97964;-77
2024/01/07 04:54:12;;;;;;;18.40;10.30;;;;;;;-7.31;92.99;100891.02;105634;1258;98428;-77
2024/01/07 04:56:57;;;;;;;20.90;9.50;;;;;;;-7.28;93.16;100894.54;105539;1259;102529;-77
2024/01/07 04:59:43;;;;;;;15.80;9.10;;;;;;;-7.26;93.08;100898.63;105506;1261;100101;-77
2024/01/07 05:02:28;;;;;;;21.80;10.40;;;;;;;-7.28;92.72;100896.12;105544;1257;97886;-77
2024/01/07 05:05:14;;;;;;;14.10;8.60;;;;;;;-7.30;92.82;100898.98;105556;1258;98421;-77
2024/01/07 05:08:00;;;;;;;17.20;9.10;;;;;;;-7.31;92.99;100898.49;105649;1255;97967;-77
2024/01/07 05:10:46;;;;;;;19.50;9.50;;;;;;;-7.32;92.86;100899.90;105533;1255;103455;-76
2024/01/07 05:13:31;;;;;;;17.60;9.30;;;;;;;-7.29;93.31;100902.05;105717;1259;99328;-77
2024/01/07 05:16:20;;;;;;;17.30;8.90;;;;;;;-7.25;93.56;100904.30;105558;1260;98900;-77
2024/01/07 05:19:05;;;;;;;15.90;9.00;;;;;;;-7.21;93.59;100903.94;105481;1260;99234;-77
2024/01/07 05:21:51;;;;;;;16.20;8.90;;;;;;;-7.21;93.46;100901.83;105548;1260;98513;-77
2024/01/07 05:24:38;;;;;;;17.60;8.80;;;;;;;-7.21;93.16;100902.56;105587;1258;102105;-78
2024/01/07 05:27:24;;;;;;;14.50;9.20;;;;;;;-7.22;93.25;100906.41;105540;1257;99103;-78
2024/01/07 05:30:10;;;;;;;18.70;10.60;;;;;;;-7.23;93.12;100904.73;105461;1260;98375;-77
2024/01/07 05:32:55;;;;;;;19.00;10.70;;;;;;;-7.24;93.28;100900.78;105493;1261;98832;-77
2024/01/07 05:35:41;;;;;;;15.40;8.30;;;;;;;-7.24;93.17;100901.11;105582;1256;98483;-77
2024/01/07 05:38:26;;;;;;;18.20;9.50;;;;;;;-7.25;92.88;100901.70;105662;1257;101405;-77
2024/01/07 05:41:12;;;;;;;17.90;8.70;;;;;;;-7.27;93.12;100901.80;105500;1260;99098;-77
2024/01/07 05:43:57;;;;;;;16.40;8.90;;;;;;;-7.28;93.20;100900.77;105581;1260;98854;-77
2024/01/07 05:46:43;;;;;;;16.30;8.70;;;;;;;-7.27;93.25;100901.23;105587;1260;98842;-77
2024/01/07 05:49:29;;;;;;;13.80;8.70;;;;;;;-7.26;93.39;100904.33;105609;1258;99605;-77
2024/01/07 05:52:14;;;;;;;18.80;10.10;;;;;;;-7.24;93.53;100902.35;105414;1260;102616;-77
2024/01/07 05:55:00;;;;;;;17.80;9.00;;;;;;;-7.23;93.55;100903.67;105566;1257;99083;-76
2024/01/07 05:57:45;;;;;;;12.90;8.90;;;;;;;-7.21;93.78;100904.96;105503;1260;97962;-76
2024/01/07 06:00:31;;;;;;;15.50;8.70;;;;;;;-7.18;93.78;100903.98;105633;1258;97932;-78
2024/01/07 06:03:17;;;;;;;17.40;9.00;;;;;;;-7.17;93.73;100905.86;106025;1260;97895;-77
2024/01/07 06:06:02;;;;;;;18.40;9.60;;;;;;;-7.15;93.81;100913.03;105473;1258;101410;-77
2024/01/07 06:08:48;;;;;;;20.50;9.00;;;;;;;-7.16;93.52;100917.93;105598;1260;99071;-77
2024/01/07 06:11:34;;;;;;;13.70;8.30;;;;;;;-7.16;93.39;100919.16;105547;1260;98060;-77
2024/01/07 06:14:19;;;;;;;15.40;7.90;;;;;;;-7.16;93.66;100921.58;105566;1260;97901;-76
2024/01/07 06:17:05;;;;;;;17.20;9.10;;;;;;;-7.16;93.62;100919.67;105500;1260;99090;-77
2024/01/07 06:19:50;;;;;;;14.40;8.50;;;;;;;-7.16;93.65;100919.66;105533;1257;102628;-77
2024/01/07 06:22:36;;;;;;;16.00;8.80;;;;;;;-7.15;93.73;100922.41;105454;1260;100453;-77
2024/01/07 06:25:22;;;;;;;13.40;8.10;;;;;;;-7.16;93.51;100921.40;105550;1260;98538;-77
2024/01/07 06:28:10;;;;;;;17.40;9.10;;;;;;;-7.16;93.70;100921.05;105521;1261;98004;-77
2024/01/07 06:30:55;;;;;;;19.20;9.00;;;;;;;-7.15;93.83;100924.34;105595;1257;98394;-78
2024/01/07 06:33:41;;;;;;;16.40;9.80;;;;;;;-7.13;94.06;100928.58;105507;1261;101327;-77
2024/01/07 06:36:27;;;;;;;16.10;8.60;;;;;;;-7.11;94.04;100934.91;105482;1260;99525;-76
2024/01/07 06:39:12;;;;;;;15.70;8.30;;;;;;;-7.10;93.87;100937.97;105622;1257;99897;-77
2024/01/07 06:41:58;;;;;;;20.00;9.20;;;;;;;-7.10;93.83;100943.70;105636;1257;97965;-78
2024/01/07 06:44:43;;;;;;;17.40;9.50;;;;;;;-7.09;94.01;100944.35;105564;1260;98396;-77
2024/01/07 06:47:29;;;;;;;16.30;9.10;;;;;;;-7.07;94.15;100947.58;105593;1259;101358;-78
2024/01/07 06:50:16;;;;;;;18.00;9.90;;;;;;;-7.09;94.00;100946.25;105563;1258;100496;-76
2024/01/07 06:53:02;;;;;;;18.30;9.40;;;;;;;-7.09;93.88;100952.34;105542;1261;98944;-78
2024/01/07 06:55:47;;;;;;;16.50;8.80;;;;;;;-7.08;94.16;100955.08;105570;1256;97994;-76
2024/01/07 06:58:33;;;;;;;14.80;8.40;;;;;;;-7.05;94.28;100958.73;105659;1260;98597;-77
2024/01/07 07:01:21;;;;;;;16.70;9.70;;;;;;;-7.03;94.16;100963.56;105551;1256;101391;-77
2024/01/07 07:04:07;;;;;;;18.60;9.20;;;;;;;-7.02;94.08;100962.80;105481;1262;99798;-77
2024/01/07 07:06:53;;;;;;;17.30;9.40;;;;;;;-7.00;94.04;100964.43;105540;1258;97984;-77
2024/01/07 07:09:38;;;;;;;17.50;9.20;;;;;;;-7.00;94.22;100960.45;105489;1261;97898;-77
2024/01/07 07:12:24;;;;;;;18.30;10.00;;;;;;;-7.00;94.08;100963.90;105607;1259;98454;-77
2024/01/07 07:15:10;;;;;;;18.50;9.90;;;;;;;-7.01;93.88;100965.88;105487;1260;102244;-76
2024/01/07 07:17:56;;;;;;;16.90;9.80;;;;;;;-7.00;93.94;100966.03;105546;1255;100955;-77
2024/01/07 07:20:41;;;;;;;18.40;10.60;;;;;;;-7.01;94.08;100970.92;105678;1260;98918;-78
2024/01/07 07:23:27;;;;;;;16.00;9.40;;;;;;;-7.00;93.99;100971.23;105574;1258;97885;-78
2024/01/07 07:26:12;;;;;;;16.50;9.40;;;;;;;-7.00;93.94;100974.86;105445;1256;99673;-77
2024/01/07 07:28:58;;;;;;;19.40;10.60;;;;;;;-7.01;93.99;100980.61;105570;1260;102643;-77
2024/01/07 07:31:44;;;;;;;18.70;10.00;;;;;;;-7.01;93.65;100986.52;105555;1260;100404;-77
2024/01/07 07:34:29;;;;;;;20.40;9.80;;;;;;;-7.03;93.70;100986.27;105482;1257;98573;-77
2024/01/07 07:37:15;;;;;;;18.30;9.70;;;;;;;-7.01;93.96;100989.49;105436;1258;98639;-77
2024/01/07 07:40:01;;;;;;;17.20;9.80;;;;;;;-6.96;93.90;100989.06;105510;1257;97870;-77
2024/01/07 07:42:47;;;;;;;16.80;10.30;;;;;;;-6.93;93.77;100991.54;105571;1257;102757;-77
2024/01/07 07:45:32;;;;;;;16.80;8.80;;;;;;;-6.91;93.84;100991.65;105526;1257;99191;-77
2024/01/07 07:48:19;;;;;;;14.00;9.00;;;;;;;-6.91;93.66;100994.40;105532;1258;98574;-76
2024/01/07 07:51:04;;;;;;;18.80;9.30;;;;;;;-6.91;93.69;100999.77;105576;1257;98088;-78
2024/01/07 07:53:50;;;;;;;19.80;10.30;;;;;;;-6.89;93.65;101005.45;105575;1257;98399;-77
2024/01/07 07:56:35;;;;;;;20.30;9.60;;;;;;;-6.88;93.35;101006.95;105556;1260;102589;-77
2024/01/07 07:59:21;;;;;;;18.80;10.80;;;;;;;-6.88;93.53;101000.89;105474;1256;100338;-77
2024/01/07 08:02:07;;;;;;;14.80;8.80;;;;;;;-6.83;93.72;100999.64;105356;1258;98149;-76
2024/01/07 08:04:53;;;;;;;16.00;9.80;;;;;;;-6.80;93.48;101001.23;105217;1257;97987;-76
2024/01/07 08:07:38;;;;;;;19.80;9.50;;;;;;;-6.78;93.35;101004.77;105181;1257;98425;-76
2024/01/07 08:10:24;;;;;;;15.10;8.80;;;;;;;-6.77;93.20;101004.71;105246;1257;101392;-78
2024/01/07 08:13:09;;;;;;;15.70;8.30;;;;;;;-6.74;93.52;101005.11;105649;1260;100520;-78
2024/01/07 08:15:55;;;;;;;13.30;7.70;;;;;;;-6.71;93.34;101005.81;105553;1260;97983;-78
2024/01/07 08:18:41;;;;;;;20.10;8.60;;;;;;;-6.69;93.04;101011.32;105535;1258;98555;-77
2024/01/07 08:21:27;;;;;;;14.60;8.70;;;;;;;-6.69;92.85;101012.34;105557;1257;98414;-78
2024/01/07 08:24:12;;;;;;;15.90;7.70;;;;;;;-6.69;92.81;101014.45;105451;1257;101533;-77
2024/01/07 08:26:58;;;;;;;13.20;8.00;;;;;;;-6.68;92.85;101016.81;105487;1271;99401;-77
2024/01/07 08:29:44;;;;;;;15.10;7.90;;;;;;;-6.65;92.78;101020.66;105516;1260;98058;-77
2024/01/07 08:32:32;;;;;;;16.70;8.50;;;;;;;-6.63;92.79;101024.75;105487;1256;98850;-77
2024/01/07 08:35:17;;;;;;;18.10;8.60;;;;;;;-6.62;92.57;101024.52;105570;1255;98570;-77
2024/01/07 08:38:03;;;;;;;15.80;9.60;;;;;;;-6.62;92.28;101018.99;105600;1258;102616;-78
2024/01/07 08:40:48;;;;;;;16.00;8.80;;;;;;;-6.62;92.47;101023.48;105573;1258;99077;-77
2024/01/07 08:43:34;;;;;;;14.70;8.50;;;;;;;-6.59;92.52;101023.04;105499;1257;99581;-78
2024/01/07 08:46:21;;;;;;;15.30;8.60;;;;;;;-6.60;92.38;101024.97;105538;1260;99612;-77
2024/01/07 08:49:06;;;;;;;14.90;9.50;;;;;;;-6.62;92.03;101029.02;105571;1260;98502;-78
2024/01/07 08:51:52;;;;;;;14.30;8.50;;;;;;;-6.62;92.01;101029.06;105507;1257;101733;-78
2024/01/07 08:54:37;;;;;;;16.30;9.10;;;;;;;-6.60;92.09;101030.70;105574;1258;99218;-78
2024/01/07 08:57:24;;;;;;;17.10;9.20;;;;;;;-6.60;92.12;101031.04;105276;1273;98058;-77
2024/01/07 09:00:10;;;;;;;15.40;7.80;;;;;;;-6.60;91.97;101029.85;105421;1258;98049;-77
2024/01/07 09:02:56;;;;;;;16.80;9.40;;;;;;;-6.61;91.90;101033.16;105549;1255;98519;-78
2024/01/07 09:05:42;;;;;;;13.30;7.70;;;;;;;-6.60;92.02;101031.89;105552;1260;102317;-78
2024/01/07 09:08:28;;;;;;;19.60;9.10;;;;;;;-6.56;92.18;101036.60;105666;1255;99102;-78
2024/01/07 09:11:13;;;;;;;17.10;9.50;;;;;;;-6.53;92.20;101037.31;105541;1257;97975;-78
2024/01/07 09:13:59;;;;;;;19.40;10.20;;;;;;;-6.53;91.88;101035.42;105582;1259;98052;-78
2024/01/07 09:16:45;;;;;;;15.60;9.70;;;;;;;-6.51;91.96;101034.61;105559;1260;96792;-77
2024/01/07 09:19:31;;;;;;;16.70;8.70;;;;;;;-6.45;92.20;101039.23;105510;1260;101348;-77
2024/01/07 09:22:16;;;;;;;16.40;8.70;;;;;;;-6.42;92.06;101035.60;105445;1260;100417;-78
2024/01/07 09:25:03;;;;;;;15.70;8.60;;;;;;;-6.41;91.70;101036.24;105558;1261;98416;-78
2024/01/07 09:27:49;;;;;;;18.00;9.40;;;;;;;-6.41;91.73;101034.70;106294;1258;98113;-77
2024/01/07 09:30:35;;;;;;;21.30;10.50;;;;;;;-6.43;91.55;101039.13;105624;1257;98491;-77
2024/01/07 09:33:23;;;;;;;17.10;9.30;;;;;;;-6.45;91.59;101037.48;105687;1257;101407;-77
2024/01/07 09:36:08;;;;;;;17.60;10.20;;;;;;;-6.42;91.90;101037.52;105620;1260;100338;-78
2024/01/07 09:38:54;;;;;;;18.00;9.50;;;;;;;-6.38;91.69;101040.46;105499;1260;97956;-77
2024/01/07 09:41:39;;;;;;;16.90;9.20;;;;;;;-6.37;91.48;101037.45;105209;1261;98559;-77
2024/01/07 09:44:25;;;;;;;16.60;9.80;;;;;;;-6.39;91.38;101033.20;105167;1260;98567;-77
2024/01/07 09:47:12;;;;;;;16.80;9.60;;;;;;;-6.42;91.28;101032.28;105260;1260;101436;-78
2024/01/07 09:49:58;;;;;;;17.70;9.60;;;;;;;-6.43;91.46;101030.25;105513;1260;99140;-78
2024/01/07 09:52:44;;;;;;;25.40;12.50;;;;;;;-6.40;91.49;101027.89;105571;1260;98150;-78
2024/01/07 09:55:39;;;;;;;16.00;10.00;;;;;;;-6.35;91.44;101026.25;105901;1260;97918;-78
2024/01/07 09:58:25;;;;;;;14.30;7.90;;;;;;;-6.29;91.53;101027.72;105543;1257;99677;-78
2024/01/07 10:01:11;;;;;;;18.40;9.60;;;;;;;-6.29;91.30;101026.45;105534;1260;102663;-77
2024/01/07 10:03:56;;;;;;;18.60;10.10;;;;;;;-6.31;90.99;101028.31;105612;1260;100424;-78
2024/01/07 10:06:42;;;;;;;15.90;9.20;;;;;;;-6.35;90.83;101027.48;105614;1260;97984;-79
2024/01/07 10:09:30;;;;;;;17.20;10.10;;;;;;;-6.38;90.84;101023.23;105474;1257;97996;-78
2024/01/07 10:12:15;;;;;;;19.90;11.10;;;;;;;-6.39;90.98;101032.84;105493;1261;98171;-77
2024/01/07 10:15:01;;;;;;;19.50;10.70;;;;;;;-6.41;90.96;101029.80;105542;1259;101383;-77
2024/01/07 10:17:48;;;;;;;15.80;10.20;;;;;;;-6.39;91.22;101027.83;105478;1261;99136;-77
2024/01/07 10:20:34;;;;;;;18.40;11.00;;;;;;;-6.40;91.11;101029.06;105465;1258;98012;-77
2024/01/07 10:23:20;;;;;;;18.60;9.90;;;;;;;-6.44;90.94;101028.38;105669;1256;97964;-77
2024/01/07 10:26:06;;;;;;;17.40;9.80;;;;;;;-6.44;91.03;101027.00;105438;1260;99133;-77
2024/01/07 10:28:52;;;;;;;20.00;10.60;;;;;;;-6.43;91.01;101027.46;105553;1260;101809;-77
2024/01/07 10:31:39;;;;;;;19.60;9.80;;;;;;;-6.42;91.24;101029.51;105633;1256;99123;-77
2024/01/07 10:34:28;;;;;;;18.60;11.50;;;;;;;-6.41;91.14;101028.27;105587;1258;98937;-77
2024/01/07 10:37:14;;;;;;;17.50;10.40;;;;;;;-6.40;91.21;101036.91;105690;1260;97897;-77
2024/01/07 10:40:03;;;;;;;19.20;10.50;;;;;;;-6.40;91.09;101043.50;105486;1258;99782;-77
2024/01/07 10:42:49;;;;;;;20.40;10.70;;;;;;;-6.43;90.78;101043.80;105451;1256;101383;-78
2024/01/07 10:45:35;;;;;;;22.60;10.90;;;;;;;-6.45;90.90;101039.90;105493;1257;99239;-77
2024/01/07 10:48:21;;;;;;;19.10;10.30;;;;;;;-6.42;91.21;101042.52;105488;1256;98035;-78
2024/01/07 10:51:07;;;;;;;21.30;11.60;;;;;;;-6.38;91.30;101039.58;105400;1257;98833;-78
2024/01/07 10:53:55;;;;;;;20.30;12.00;;;;;;;-6.41;90.86;101038.67;105473;1260;98584;-77
2024/01/07 10:56:54;;;;;;;18.80;9.80;;;;;;;-6.44;90.78;101034.66;105520;1260;102664;-78
2024/01/07 10:59:40;;;;;;;18.60;10.50;;;;;;;-6.44;91.02;101038.98;105476;1261;100879;-77
2024/01/07 11:02:27;;;;;;;17.10;10.40;;;;;;;-6.49;90.62;101037.64;105602;1257;99877;-78
2024/01/07 11:05:52;;;;;;;20.50;11.20;;;;;;;-6.54;90.61;101035.82;105524;1256;98066;-78
2024/01/07 11:08:44;;;;;;;20.60;10.70;;;;;;;-6.57;90.59;101032.98;105535;1258;98523;-78
2024/01/07 11:11:42;;;;;;;21.80;11.40;;;;;;;-6.57;90.76;101031.25;105949;1260;102081;-77
2024/01/07 11:14:39;;;;;;;21.90;11.90;;;;;;;-6.58;90.40;101033.36;105448;1261;100450;-78
2024/01/07 11:17:42;;;;;;;21.70;12.00;;;;;;;-6.61;90.56;101036.81;105517;1260;98048;-78
2024/01/07 11:20:31;;;;;;;21.10;11.50;;;;;;;-6.63;90.45;101037.40;105601;1263;98567;-77
2024/01/07 11:23:27;;;;;;;23.90;12.20;;;;;;;-6.64;90.43;101038.15;105417;1258;97787;-77
2024/01/07 11:26:13;;;;;;;21.80;11.30;;;;;;;-6.63;90.65;101037.58;105150;1257;102523;-77
2024/01/07 11:29:00;;;;;;;24.20;11.50;;;;;;;-6.61;90.66;101034.39;105297;1260;100557;-78
2024/01/07 11:31:47;;;;;;;23.00;11.50;;;;;;;-6.60;90.70;101032.62;105240;1260;99426;-76
2024/01/07 11:34:40;;;;;;;18.80;10.80;;;;;;;-6.56;90.87;101033.13;105568;1257;97888;-78
2024/01/07 11:37:25;;;;;;;20.60;10.30;;;;;;;-6.54;90.61;101034.23;105707;1260;98772;-78
2024/01/07 11:40:14;;;;;;;25.30;11.80;;;;;;;-6.58;90.12;101035.27;105520;1255;101334;-77
2024/01/07 11:42:59;;;;;;;20.70;12.00;;;;;;;-6.61;90.16;101037.16;105709;1260;100342;-77
2024/01/07 11:45:46;;;;;;;20.10;11.90;;;;;;;-6.60;90.27;101035.03;105415;1260;97887;-77
2024/01/07 11:48:31;;;;;;;20.40;12.30;;;;;;;-6.53;90.54;101033.85;105214;1260;98442;-77
2024/01/07 11:51:17;;;;;;;20.80;11.20;;;;;;;-6.49;90.37;101034.69;105516;1255;97905;-77
2024/01/07 11:54:02;;;;;;;24.40;12.40;;;;;;;-6.49;90.20;101034.52;105645;1259;101293;-77
2024/01/07 11:56:48;;;;;;;27.30;12.40;;;;;;;-6.51;89.84;101032.71;105519;1257;100116;-77
2024/01/07 11:59:34;;;;;;;23.10;12.00;;;;;;;-6.52;90.11;101034.52;105536;1257;97963;-78
2024/01/07 12:02:20;;;;;;;23.30;11.70;;;;;;;-6.54;89.81;101030.94;105619;1261;97970;-77
2024/01/07 12:05:06;;;;;;;20.40;11.20;;;;;;;-6.56;89.59;101034.50;105500;1260;97765;-77
2024/01/07 12:07:52;;;;;;;21.00;11.90;;;;;;;-6.57;89.55;101028.66;105421;1258;103046;-77
2024/01/07 12:10:37;;;;;;;24.10;13.60;;;;;;;-6.54;89.78;101031.48;105552;1261;100421;-77
2024/01/07 12:13:24;;;;;;;17.90;10.60;;;;;;;-6.53;89.63;101034.54;105428;1264;98528;-78
2024/01/07 12:16:10;;;;;;;25.60;13.20;;;;;;;-6.54;89.24;101037.19;105497;1260;99208;-77
2024/01/07 12:18:55;;;;;;;22.10;12.40;;;;;;;-6.57;89.29;101033.85;105442;1257;97889;-78
2024/01/07 12:21:41;;;;;;;18.40;11.50;;;;;;;-6.56;89.51;101035.56;105625;1260;102578;-77
2024/01/07 12:24:27;;;;;;;19.90;11.50;;;;;;;-6.56;89.29;101034.16;105671;1260;99476;-78
2024/01/07 12:27:15;;;;;;;25.20;13.80;;;;;;;-6.54;89.58;101029.21;105469;1256;97936;-77
2024/01/07 12:30:00;;;;;;;23.30;11.80;;;;;;;-6.47;89.84;101031.16;105687;1257;98023;-78